Time;durP1;ratioP1;P1;durP2;ratioP2;P2;SDS_P1;SDS_P2;PMS_P1;PMS_P2;Temp;Humidity;BMP_temperature;BMP_pressure;BME280_temperature;BME280_humidity;BME280_pressure;Samples;Min_cycle;Max_cycle;Signal;HPM_P1;HPM_P2
2021/12/17 00:53:16;394700.00;1.32;680.69;0.00;0.00;0.62;;;;;8.30;1.00;;;;;;2282211;61;1424;-84
2021/12/17 01:08:04;711792.00;2.37;1227.69;88733.00;0.30;154.12;;;;;8.50;1.00;;;;;;2281884;61;1201;-84
2021/12/17 01:10:36;776803.00;2.59;1340.70;104336.00;0.35;181.06;;;;;8.40;1.00;;;;;;2280303;61;1018;-84
2021/12/17 01:15:32;637785.00;2.13;1099.51;83631.00;0.28;145.31;;;;;7.70;1.00;;;;;;2282996;61;1305;-83
2021/12/17 01:43:13;170728.00;0.57;295.52;21983.00;0.07;38.70;;;;;9.10;1.00;;;;;;2282276;61;1420;-84
2021/12/17 02:28:47;387195.00;1.29;667.79;91683.00;0.31;159.21;;;;;8.90;1.00;;;;;;2279379;61;1458;-83
2021/12/17 02:31:25;74591.00;0.25;129.69;0.00;0.00;0.62;;;;;8.80;1.00;;;;;;2267184;61;1021;-86
2021/12/17 02:36:24;56452.00;0.19;98.34;0.00;0.00;0.62;;;;;9.00;1.00;;;;;;2279383;60;1365;-85
2021/12/17 02:53:59;366139.00;1.22;631.60;0.00;0.00;0.62;;;;;8.40;1.00;;;;;;2282715;60;1243;-85
2021/12/17 03:08:49;87222.00;0.29;151.51;0.00;0.00;0.62;;;;;8.90;1.00;;;;;;2282588;61;1380;-84
2021/12/17 03:16:25;195655.00;0.65;338.44;0.00;0.00;0.62;;;;;8.90;1.00;;;;;;2282559;60;1397;-86
2021/12/17 03:26:20;156802.00;0.52;271.53;0.00;0.00;0.62;;;;;9.30;1.00;;;;;;2420178;55;3745;31
2021/12/17 03:28:49;181338.00;0.60;313.79;27630.00;0.09;48.48;;;;;9.40;1.00;;;;;;2282000;60;1393;-83
2021/12/17 03:51:14;127071.00;0.42;220.28;0.00;0.00;0.62;;;;;7.90;1.00;;;;;;2282794;61;1192;-84
2021/12/17 03:53:44;178180.00;0.59;308.36;0.00;0.00;0.62;;;;;8.10;1.00;;;;;;2280881;61;1305;-84
2021/12/17 04:06:07;117905296.00;393.02;66394704.00;0.00;0.00;0.62;;;;;8.60;1.00;;;;;;2282094;61;991;-85
2021/12/17 04:20:59;190361.00;0.63;329.33;0.00;0.00;0.62;;;;;7.90;1.00;;;;;;2283251;61;1301;-85
2021/12/17 04:23:26;228213.00;0.76;394.47;31183.00;0.10;54.63;;;;;8.00;1.00;;;;;;2484529;39;3893;31
2021/12/17 04:30:52;181891.00;0.61;314.75;0.00;0.00;0.62;;;;;8.00;1.00;;;;;;2282276;60;1333;-86
2021/12/17 04:33:21;338634.00;1.13;584.33;63262.00;0.21;110.12;;;;;8.40;1.00;;;;;;2280720;61;1333;-85
2021/12/17 04:35:48;184963.00;0.62;320.04;0.00;0.00;0.62;;;;;8.50;1.00;;;;;;2273909;61;939;-85
2021/12/17 04:38:17;268514.00;0.90;463.79;26003.00;0.09;45.66;;;;;8.50;1.00;;;;;;2273652;61;1907;-84
2021/12/17 04:40:44;139171.00;0.46;241.14;0.00;0.00;0.62;;;;;8.60;1.00;;;;;;2280904;61;1004;-85
2021/12/17 04:43:17;209593.00;0.70;362.43;0.00;0.00;0.62;;;;;8.70;1.00;;;;;;2268412;61;1446;-84
2021/12/17 05:01:39;401174.00;1.34;691.82;105238.00;0.35;182.61;;;;;8.10;1.00;;;;;;2282513;60;1427;-84
2021/12/17 05:04:06;491249.00;1.64;846.76;92142.00;0.31;160.01;;;;;8.30;1.00;;;;;;2274106;61;1032;-85
2021/12/17 05:06:33;478987.00;1.60;825.65;89282.00;0.30;155.07;;;;;8.60;1.00;;;;;;2281052;60;1036;-85
2021/12/17 05:09:08;494213.00;1.65;851.86;95849.00;0.32;166.41;;;;;8.70;1.00;;;;;;2276264;61;1034;-82
2021/12/17 05:19:44;387859.00;1.29;668.93;83843.00;0.28;145.68;;;;;8.70;1.00;;;;;;2276773;61;1923;-83
2021/12/17 05:22:12;368790.00;1.23;636.16;93850.00;0.31;162.96;;;;;8.40;1.00;;;;;;2275656;60;1427;-84
2021/12/17 05:24:40;146628.00;0.49;254.00;0.00;0.00;0.62;;;;;8.20;1.00;;;;;;2268133;61;918;-86
2021/12/17 05:27:07;112732.00;0.38;195.54;0.00;0.00;0.62;;;;;8.60;1.00;;;;;;2261925;61;982;-86
2021/12/17 05:29:35;241520.00;0.81;417.37;36839.00;0.12;64.42;;;;;8.70;1.00;;;;;;2265348;61;926;-86
2021/12/17 05:32:03;166502.00;0.56;288.24;0.00;0.00;0.62;;;;;8.80;1.00;;;;;;2268610;61;1465;-85
2021/12/17 05:36:58;160600.00;0.54;278.07;14140.00;0.05;25.12;;;;;8.50;1.00;;;;;;2286701;60;1398;-84
2021/12/17 05:39:25;117006.00;0.39;202.92;0.00;0.00;0.62;;;;;8.60;1.00;;;;;;2274220;60;1911;-83
2021/12/17 05:41:53;93584.00;0.31;162.50;0.00;0.00;0.62;;;;;8.30;1.00;;;;;;2274364;60;1368;-84
2021/12/17 05:44:21;89912.00;0.30;156.16;0.00;0.00;0.62;;;;;8.20;1.00;;;;;;2277608;60;883;-84
2021/12/17 05:46:50;67169.00;0.22;116.87;0.00;0.00;0.62;;;;;8.60;2.50;;;;;;2274330;60;981;-85
2021/12/17 05:49:18;97621.00;0.33;169.47;0.00;0.00;0.62;;;;;8.80;1.00;;;;;;2284728;60;910;-84
2021/12/17 05:51:46;116452.00;0.39;201.96;0.00;0.00;0.62;;;;;8.80;1.00;;;;;;2274293;60;1471;-84
2021/12/17 05:54:14;72614.00;0.24;126.28;0.00;0.00;0.62;;;;;8.80;1.00;;;;;;2284816;60;1024;-83
2021/12/17 05:56:41;122927.00;0.41;213.13;0.00;0.00;0.62;;;;;8.50;1.00;;;;;;2275012;60;945;-84
2021/12/17 05:59:10;39846.00;0.13;69.62;0.00;0.00;0.62;;;;;8.50;1.00;;;;;;2285574;60;1917;-85
2021/12/17 06:01:37;23655.00;0.08;41.60;0.00;0.00;0.62;;;;;8.70;1.00;;;;;;2275015;60;1462;-84
2021/12/17 06:04:04;29787.00;0.10;52.21;0.00;0.00;0.62;;;;;8.50;1.00;;;;;;2275076;60;994;-82
2021/12/17 06:06:34;43631.00;0.15;76.17;0.00;0.00;0.62;;;;;8.20;1.00;;;;;;2285676;60;1086;-82
2021/12/17 06:09:04;21591.00;0.07;38.03;0.00;0.00;0.62;;;;;8.20;1.00;;;;;;2285585;60;920;-85
2021/12/17 06:11:31;36092.00;0.12;63.13;0.00;0.00;0.62;;;;;8.30;1.00;;;;;;2275062;60;1411;-84
2021/12/17 06:13:58;87527.00;0.29;152.04;0.00;0.00;0.62;;;;;8.30;1.00;;;;;;2285534;60;949;-82
2021/12/17 06:16:28;199202.00;0.66;344.55;5314.00;0.02;9.83;;;;;8.60;1.70;;;;;;2275137;60;939;-84
2021/12/17 06:18:55;20475.00;0.07;36.09;0.00;0.00;0.62;;;;;9.60;2.60;;;;;;2275136;60;1913;-84
2021/12/17 06:21:22;62828.00;0.21;109.37;0.00;0.00;0.62;;;;;10.10;1.50;;;;;;2275105;60;989;-84
2021/12/17 06:23:49;74329.00;0.25;129.24;0.00;0.00;0.62;;;;;10.30;1.00;;;;;;2274802;60;1489;-85
2021/12/17 06:26:16;180447.00;0.60;312.26;0.00;0.00;0.62;;;;;10.20;1.00;;;;;;2274784;60;987;-84
2021/12/17 06:28:43;43988.00;0.15;76.79;0.00;0.00;0.62;;;;;10.60;1.00;;;;;;2285420;60;1071;-84
2021/12/17 06:31:10;63790.00;0.21;111.03;0.00;0.00;0.62;;;;;11.00;1.00;;;;;;2276473;60;969;-84
2021/12/17 06:33:39;88864.00;0.30;154.35;0.00;0.00;0.62;;;;;11.00;1.00;;;;;;2277908;60;1418;-85
2021/12/17 06:36:06;99823.00;0.33;173.27;0.00;0.00;0.62;;;;;10.30;1.00;;;;;;2272570;61;981;-83
2021/12/17 06:38:33;69248.00;0.23;120.46;0.00;0.00;0.62;;;;;10.20;1.00;;;;;;2268435;61;1029;-83
2021/12/17 06:41:07;189529.00;0.63;327.90;0.00;0.00;0.62;;;;;10.00;1.00;;;;;;2262091;61;1936;-84
2021/12/17 07:10:43;322821.00;1.08;557.15;91622.00;0.31;159.11;;;;;9.20;1.00;;;;;;2287093;60;1383;-85
2021/12/17 07:43:02;291100.00;0.97;502.62;93775.00;0.31;162.83;;;;;7.80;9.30;;;;;;2283643;60;1406;-83
2021/12/17 07:58:09;517193.00;1.72;891.43;78533.00;0.26;136.50;;;;;9.50;1.00;;;;;;2281789;60;1401;-84
2021/12/17 08:00:37;761022.00;2.54;1313.23;108275.00;0.36;187.85;;;;;9.40;1.00;;;;;;2274055;61;1915;-84
2021/12/17 08:03:05;411952.00;1.37;710.35;91284.00;0.30;158.52;;;;;9.40;1.00;;;;;;2281013;61;1376;-84
2021/12/17 08:05:32;425611.00;1.42;733.84;92511.00;0.31;160.64;;;;;9.40;1.00;;;;;;2276610;61;924;-84
2021/12/17 08:07:59;650834.00;2.17;1122.08;107653.00;0.36;186.78;;;;;9.40;1.00;;;;;;2276695;61;1020;-83
2021/12/17 08:10:26;350334.00;1.17;604.44;88317.00;0.29;153.40;;;;;9.70;1.00;;;;;;2270118;61;997;-84
2021/12/17 08:12:55;560338.00;1.87;965.78;95030.00;0.32;164.99;;;;;9.60;1.00;;;;;;2272280;61;1444;-84
2021/12/17 08:15:31;448756.00;1.50;773.64;88601.00;0.30;153.89;;;;;9.60;1.00;;;;;;2272489;61;1025;-84
2021/12/17 08:18:26;522696.00;1.74;900.91;101387.00;0.34;175.97;;;;;9.50;1.00;;;;;;2265745;61;994;-83
2021/12/17 08:26:39;291478.00;0.97;503.27;0.00;0.00;0.62;;;;;9.00;1.00;;;;;;2268648;61;1081;-84
2021/12/17 08:29:28;503829.00;1.68;868.42;90588.00;0.30;157.32;;;;;8.90;1.00;;;;;;2268502;61;1013;-85
2021/12/17 08:31:57;491482.00;1.64;847.16;94864.00;0.32;164.71;;;;;8.90;1.00;;;;;;2265294;61;1456;-85
2021/12/17 08:36:51;412034.00;1.37;710.49;101076.00;0.34;175.43;;;;;9.20;1.00;;;;;;2278629;61;1403;-84
2021/12/17 08:39:19;375017.00;1.25;646.86;93901.00;0.31;163.04;;;;;9.10;1.00;;;;;;2273196;61;2002;-85
2021/12/17 08:41:50;473639.00;1.58;816.45;93876.00;0.31;163.00;;;;;9.20;1.00;;;;;;2272798;61;1467;-86
2021/12/17 08:44:18;315798.00;1.05;545.08;109013.00;0.36;189.13;;;;;9.30;1.00;;;;;;2272888;61;907;-84
2021/12/17 08:49:15;464594.00;1.55;800.89;91040.00;0.30;158.10;;;;;9.40;1.00;;;;;;2281881;60;1408;-85
2021/12/17 08:51:44;484848.00;1.62;835.74;95532.00;0.32;165.86;;;;;9.50;1.00;;;;;;2273636;60;1443;-84
2021/12/17 08:54:11;370283.00;1.23;638.72;94508.00;0.32;164.09;;;;;9.40;1.00;;;;;;2281097;60;979;-86
2021/12/17 08:56:44;472921.00;1.58;815.22;98796.00;0.33;171.49;;;;;9.40;1.00;;;;;;2273911;60;1013;-83
2021/12/17 08:59:13;627860.00;2.09;1082.35;102987.00;0.34;178.73;;;;;9.40;1.00;;;;;;2281070;60;1993;-83
2021/12/17 09:01:40;498111.00;1.66;858.57;98051.00;0.33;170.21;;;;;9.00;1.00;;;;;;2275906;61;1317;-85
2021/12/17 09:04:08;430526.00;1.44;742.29;95048.00;0.32;165.02;;;;;9.00;1.00;;;;;;2273141;61;982;-81
2021/12/17 09:06:36;596059.00;1.99;1027.42;111023.00;0.37;192.60;;;;;9.30;1.00;;;;;;2273166;61;1069;-81
2021/12/17 09:09:04;666827.00;2.22;1149.76;120486.00;0.40;208.92;;;;;9.90;1.00;;;;;;2276484;61;930;-83
2021/12/17 09:11:31;680374.00;2.27;1173.22;120415.00;0.40;208.80;;;;;9.80;1.00;;;;;;2273132;61;990;-81
2021/12/17 09:14:01;821127.00;2.74;1417.99;134855.00;0.45;233.70;;;;;10.00;1.00;;;;;;2273070;60;990;-82
2021/12/17 09:16:29;500363.00;1.67;862.45;0.00;0.00;0.62;;;;;10.30;1.00;;;;;;2269878;61;990;-81
2021/12/17 09:18:58;854164.00;2.85;1475.76;0.00;0.00;0.62;;;;;10.80;1.00;;;;;;2273838;60;1008;-82
2021/12/17 09:21:25;390689.00;1.30;673.80;0.00;0.00;0.62;;;;;11.00;1.00;;;;;;2281096;60;1989;-81
2021/12/17 09:23:53;277552.00;0.93;479.33;0.00;0.00;0.62;;;;;10.80;1.00;;;;;;2281032;60;1402;-83
2021/12/17 09:26:22;376704.00;1.26;649.76;0.00;0.00;0.62;;;;;11.00;1.00;;;;;;2276367;61;1020;-81
2021/12/17 09:28:49;337971.00;1.13;583.19;0.00;0.00;0.62;;;;;11.10;1.00;;;;;;2280706;60;933;-82
2021/12/17 09:31:17;378339.00;1.26;652.57;0.00;0.00;0.62;;;;;11.30;1.00;;;;;;2273632;60;922;-82
2021/12/17 09:33:47;369094.00;1.23;636.68;9305.00;0.03;16.75;;;;;11.70;1.00;;;;;;2276042;61;1413;-83
2021/12/17 09:36:14;417874.00;1.39;720.53;0.00;0.00;0.62;;;;;11.70;1.00;;;;;;2276483;61;1005;-83
2021/12/17 09:38:41;373297.00;1.24;643.90;0.00;0.00;0.62;;;;;11.40;1.00;;;;;;2273266;60;902;-83
2021/12/17 09:41:10;393197.00;1.31;678.11;0.00;0.00;0.62;;;;;11.50;1.00;;;;;;2273018;61;2102;-84
2021/12/17 09:43:37;277111.00;0.92;478.57;0.00;0.00;0.62;;;;;11.60;1.00;;;;;;2273276;61;1454;-82
2021/12/17 09:46:07;190086.00;0.63;328.86;0.00;0.00;0.62;;;;;11.50;1.00;;;;;;2276388;61;1029;-79
2021/12/17 09:48:35;287943.00;0.96;497.19;0.00;0.00;0.62;;;;;11.60;1.00;;;;;;2269554;61;994;-81
2021/12/17 09:51:04;199666.00;0.67;345.35;0.00;0.00;0.62;;;;;11.70;1.00;;;;;;2273598;61;938;-83
2021/12/17 09:53:31;382353.00;1.27;659.47;0.00;0.00;0.62;;;;;11.50;1.00;;;;;;2273698;61;1407;-82
2021/12/17 09:55:59;332076.00;1.11;573.05;0.00;0.00;0.62;;;;;11.30;1.00;;;;;;2277119;60;1005;-83
2021/12/17 09:58:29;250565.00;0.84;432.92;0.00;0.00;0.62;;;;;11.60;1.00;;;;;;2270472;61;950;-84
2021/12/17 10:00:57;299905.00;1.00;517.76;0.00;0.00;0.62;;;;;12.00;1.00;;;;;;2268240;61;2001;-82
2021/12/17 10:03:24;351003.00;1.17;605.59;0.00;0.00;0.62;;;;;11.60;1.00;;;;;;2261485;61;1286;-83
2021/12/17 10:05:51;388285.00;1.29;669.67;0.00;0.00;0.62;;;;;11.90;1.00;;;;;;2268341;61;904;-81
2021/12/17 10:08:21;291648.00;0.97;503.56;0.00;0.00;0.62;;;;;12.30;1.00;;;;;;2258944;61;979;-81
2021/12/17 10:10:50;203035.00;0.68;351.15;0.00;0.00;0.62;;;;;12.60;1.00;;;;;;2268927;61;999;-82
2021/12/17 10:13:21;237858.00;0.79;411.07;0.00;0.00;0.62;;;;;12.70;1.00;;;;;;2270802;61;1440;-82
2021/12/17 10:15:52;182927.00;0.61;316.53;0.00;0.00;0.62;;;;;12.60;1.00;;;;;;2272397;61;984;-82
2021/12/17 10:18:30;203820.00;0.68;352.50;0.00;0.00;0.62;;;;;12.50;1.00;;;;;;2273645;61;945;-81
2021/12/17 10:20:59;115207.00;0.38;199.81;0.00;0.00;0.62;;;;;12.10;1.00;;;;;;2273557;61;1990;-80
2021/12/17 10:23:28;157377.00;0.52;272.52;0.00;0.00;0.62;;;;;11.80;1.00;;;;;;2276971;60;1467;-83
2021/12/17 10:25:56;355655.00;1.19;613.58;0.00;0.00;0.62;;;;;11.50;1.00;;;;;;2276895;60;1016;-81
2021/12/17 10:28:23;227292.00;0.76;392.89;0.00;0.00;0.62;;;;;11.40;1.00;;;;;;2276990;60;921;-81
2021/12/17 10:30:53;182838.00;0.61;316.38;0.00;0.00;0.62;;;;;11.90;1.00;;;;;;2274875;60;1001;-80
2021/12/17 10:33:23;493522.00;1.65;850.67;17099.00;0.06;30.25;;;;;11.80;1.00;;;;;;2280684;60;1340;-80
2021/12/17 10:35:54;196218.00;0.65;339.41;0.00;0.00;0.62;;;;;11.60;1.00;;;;;;2280721;60;893;-82
2021/12/17 10:38:24;139298.00;0.46;241.36;0.00;0.00;0.62;;;;;11.20;1.00;;;;;;2275296;61;990;-80
2021/12/17 10:40:58;339224.00;1.13;585.34;0.00;0.00;0.62;;;;;11.60;1.00;;;;;;2276179;61;2020;-84
2021/12/17 10:43:32;18082.00;0.06;31.95;0.00;0.00;0.62;;;;;11.60;1.00;;;;;;2268790;61;1438;-78
2021/12/17 10:46:06;27482.00;0.09;48.22;0.00;0.00;0.62;;;;;11.30;1.00;;;;;;2268875;61;928;-81
2021/12/17 10:48:36;147136.00;0.49;254.87;0.00;0.00;0.62;;;;;11.20;1.00;;;;;;2265168;61;953;-81
2021/12/17 10:51:24;97411.00;0.32;169.10;0.00;0.00;0.62;;;;;11.40;1.00;;;;;;2267484;61;1136;-81
2021/12/17 10:53:54;62788.00;0.21;109.30;0.00;0.00;0.62;;;;;10.80;1.00;;;;;;2262162;61;1288;-80
2021/12/17 10:56:23;264982.00;0.88;457.72;0.00;0.00;0.62;;;;;10.00;1.00;;;;;;2268673;61;971;-83
2021/12/17 10:58:59;73955.00;0.25;128.59;0.00;0.00;0.62;;;;;9.70;1.00;;;;;;2277055;61;976;-79
2021/12/17 11:01:36;511046.00;1.70;880.84;77903.00;0.26;135.41;;;;;9.30;1.00;;;;;;2280707;60;1981;-80
2021/12/17 11:04:10;89042.00;0.30;154.65;0.00;0.00;0.62;;;;;8.80;1.00;;;;;;2285365;60;991;-80
2021/12/17 11:06:45;58769.00;0.20;102.35;0.00;0.00;0.62;;;;;8.60;1.00;;;;;;2281664;60;960;-81
2021/12/17 11:09:22;252271.00;0.84;435.86;0.00;0.00;0.62;;;;;8.30;1.00;;;;;;2284884;60;996;-81
2021/12/17 11:11:50;142372.00;0.47;246.66;0.00;0.00;0.62;;;;;8.20;1.00;;;;;;2278278;60;1415;-81
2021/12/17 11:14:23;241414.00;0.80;417.18;0.00;0.00;0.62;;;;;8.50;1.00;;;;;;2281654;60;1008;-81
2021/12/17 11:16:52;541992.00;1.81;934.16;93769.00;0.31;162.82;;;;;8.60;1.00;;;;;;2274867;60;978;-81
2021/12/17 11:19:19;385540.00;1.29;664.95;101596.00;0.34;176.33;;;;;8.40;1.00;;;;;;2278359;60;1008;-79
2021/12/17 11:21:46;446829.00;1.49;770.33;86792.00;0.29;150.77;;;;;8.50;1.00;;;;;;2285237;60;1999;-80
2021/12/17 11:24:14;642839.00;2.14;1108.25;85580.00;0.29;148.67;;;;;8.30;1.00;;;;;;2281642;60;1010;-81
2021/12/17 11:26:41;387364.00;1.29;668.08;102405.00;0.34;177.72;;;;;8.20;1.00;;;;;;2278027;60;974;-79
2021/12/17 11:29:10;390565.00;1.30;673.59;75923.00;0.25;131.99;;;;;8.20;1.00;;;;;;2285240;60;1028;-80
2021/12/17 11:31:37;569706.00;1.90;981.94;94728.00;0.32;164.47;;;;;8.30;1.00;;;;;;2285263;60;1306;-82
2021/12/17 11:34:06;419378.00;1.40;723.12;98132.00;0.33;170.35;;;;;8.20;1.00;;;;;;2280976;60;1008;-81
2021/12/17 11:36:34;606817.00;2.02;1045.99;101811.00;0.34;176.70;;;;;8.40;1.00;;;;;;2274298;60;1001;-81
2021/12/17 11:39:06;551408.00;1.84;950.39;92654.00;0.31;160.89;;;;;8.30;1.00;;;;;;2270912;60;1009;-81
2021/12/17 11:41:47;510053.00;1.70;879.13;96382.00;0.32;167.33;;;;;8.20;1.00;;;;;;2274172;60;2010;-79
2021/12/17 11:44:19;546124.00;1.82;941.28;152069.00;0.51;263.37;;;;;8.50;1.00;;;;;;2280817;60;916;-79
2021/12/17 11:47:02;380763.00;1.27;656.74;99753.00;0.33;173.15;;;;;8.70;1.00;;;;;;2281070;60;1076;-80
2021/12/17 11:49:35;526414.00;1.75;907.31;102474.00;0.34;177.84;;;;;9.10;1.00;;;;;;2280749;60;1022;-78
2021/12/17 11:52:02;639667.00;2.13;1102.76;126940.00;0.42;220.05;;;;;9.00;1.00;;;;;;2276159;60;1453;-79
2021/12/17 11:54:31;271226.00;0.90;468.45;89221.00;0.30;154.96;;;;;9.10;1.00;;;;;;2281181;60;1053;-82
2021/12/17 11:57:06;374897.00;1.25;646.65;94513.00;0.32;164.10;;;;;9.70;1.00;;;;;;2278238;60;959;-81
2021/12/17 11:59:39;406378.00;1.35;700.77;95310.00;0.32;165.48;;;;;9.80;1.00;;;;;;2277898;60;959;-81
2021/12/17 12:02:15;444993.00;1.48;767.17;92883.00;0.31;161.29;;;;;9.70;1.00;;;;;;2278008;60;1926;-83
2021/12/17 12:04:58;467284.00;1.56;805.52;95759.00;0.32;166.25;;;;;9.90;1.00;;;;;;2285199;60;1007;-80
2021/12/17 12:07:37;507723.00;1.69;875.12;101360.00;0.34;175.92;;;;;9.90;1.00;;;;;;2281482;60;972;-80
2021/12/17 12:10:24;452219.00;1.51;779.60;82005.00;0.27;142.50;;;;;8.90;1.00;;;;;;2285178;60;935;-79
2021/12/17 12:13:02;569873.00;1.90;982.23;99506.00;0.33;172.72;;;;;8.90;1.00;;;;;;2280282;60;1384;-79
2021/12/17 12:15:37;437748.00;1.46;754.71;102660.00;0.34;178.16;;;;;8.80;1.00;;;;;;2273996;60;1052;-81
2021/12/17 12:18:16;690709.00;2.30;1191.13;93105.00;0.31;161.67;;;;;8.70;1.00;;;;;;2280392;60;973;-80
2021/12/17 12:20:56;339350.00;1.13;585.56;0.00;0.00;0.62;;;;;8.90;1.00;;;;;;2276982;60;1918;-80
2021/12/17 12:23:35;247012.00;0.82;426.81;0.00;0.00;0.62;;;;;9.10;1.00;;;;;;2280398;60;1529;-81
2021/12/17 12:26:34;187327.00;0.62;324.11;0.00;0.00;0.62;;;;;9.10;1.00;;;;;;2277212;60;1005;-81
2021/12/17 12:29:12;145563.00;0.49;252.16;0.00;0.00;0.62;;;;;8.60;1.00;;;;;;2268063;61;1033;-81
2021/12/17 12:32:22;210494.00;0.70;363.99;0.00;0.00;0.62;;;;;8.50;1.00;;;;;;2268333;61;1365;-78
2021/12/17 12:34:50;138401.00;0.46;239.81;0.00;0.00;0.62;;;;;8.40;1.00;;;;;;2281053;60;992;-80
2021/12/17 12:37:28;167916.00;0.56;290.68;0.00;0.00;0.62;;;;;8.70;1.00;;;;;;2285108;60;1193;-80
2021/12/17 12:40:18;100810.00;0.34;174.97;0.00;0.00;0.62;;;;;8.70;1.00;;;;;;2284879;60;1240;-81
2021/12/17 12:42:54;144650.00;0.48;250.59;0.00;0.00;0.62;;;;;8.60;1.00;;;;;;2285003;60;1434;-79
2021/12/17 12:45:22;124131.00;0.41;215.21;0.00;0.00;0.62;;;;;8.70;1.00;;;;;;2281078;60;1039;-79
2021/12/17 12:47:58;173854.00;0.58;300.90;0.00;0.00;0.62;;;;;8.70;1.00;;;;;;2285055;60;1031;-79
2021/12/17 12:50:29;222244.00;0.74;384.20;0.00;0.00;0.62;;;;;8.50;1.00;;;;;;2284949;60;988;-80
2021/12/17 12:53:01;219756.00;0.73;379.92;0.00;0.00;0.62;;;;;8.70;1.00;;;;;;2281189;60;1395;-79
2021/12/17 12:55:31;197429.00;0.66;341.50;0.00;0.00;0.62;;;;;8.60;1.00;;;;;;2281234;60;1118;-80
2021/12/17 12:58:06;293360.00;0.98;506.51;0.00;0.00;0.62;;;;;8.90;1.00;;;;;;2281187;60;966;-81
2021/12/17 13:00:37;147482.00;0.49;255.47;0.00;0.00;0.62;;;;;9.20;1.00;;;;;;2277860;60;1996;-82
2021/12/17 13:03:07;153120.00;0.51;265.18;0.00;0.00;0.62;;;;;9.00;1.00;;;;;;2277506;60;1185;-80
2021/12/17 13:05:36;274270.00;0.91;473.69;0.00;0.00;0.62;;;;;9.00;1.00;;;;;;2280253;60;1143;-82
2021/12/17 13:08:07;130584.00;0.44;226.34;0.00;0.00;0.62;;;;;9.20;1.00;;;;;;2276880;60;1008;-80
2021/12/17 13:10:37;122177.00;0.41;211.84;0.00;0.00;0.62;;;;;9.70;1.00;;;;;;2280542;60;1043;-80
2021/12/17 13:13:14;82292.00;0.27;143.00;0.00;0.00;0.62;;;;;10.40;1.00;;;;;;2280367;60;1440;-80
2021/12/17 13:15:46;102474.00;0.34;177.84;0.00;0.00;0.62;;;;;10.70;1.00;;;;;;2272378;61;922;-82
2021/12/17 13:21:16;106847.00;0.36;185.39;0.00;0.00;0.62;;;;;9.60;1.00;;;;;;2268265;61;1988;-81
2021/12/17 13:23:51;119940.00;0.40;207.98;0.00;0.00;0.62;;;;;9.40;1.00;;;;;;2270350;61;1457;-79
2021/12/17 13:26:20;306305.00;1.02;528.76;17826.00;0.06;31.51;;;;;9.40;1.00;;;;;;2260217;61;957;-80
2021/12/17 13:29:05;371185.00;1.24;640.27;0.00;0.00;0.62;;;;;9.40;1.00;;;;;;2260358;61;1075;-81
2021/12/17 13:31:38;101506.00;0.34;176.17;0.00;0.00;0.62;;;;;9.60;1.00;;;;;;2260181;61;1054;-81
2021/12/17 13:34:11;284476.00;0.95;491.23;0.00;0.00;0.62;;;;;9.60;1.00;;;;;;2256301;61;1009;-79
2021/12/17 13:36:44;343091.00;1.14;591.99;0.00;0.00;0.62;;;;;9.50;1.00;;;;;;2269250;61;1104;-81
2021/12/17 13:39:13;529755.00;1.77;913.07;11691.00;0.04;20.88;;;;;9.20;1.00;;;;;;2268954;61;1005;-79
2021/12/17 13:41:43;416709.00;1.39;718.53;0.00;0.00;0.62;;;;;9.00;1.00;;;;;;2268811;61;2002;-80
2021/12/17 13:44:26;499560.00;1.67;861.07;24996.00;0.08;43.92;;;;;9.20;1.00;;;;;;2265748;61;993;-79
2021/12/17 13:46:54;288477.00;0.96;498.11;0.00;0.00;0.62;;;;;9.40;1.00;;;;;;2257340;61;1028;-79
2021/12/17 13:49:21;190241.00;0.63;329.12;0.00;0.00;0.62;;;;;9.60;1.00;;;;;;2257590;61;959;-79
2021/12/17 13:51:48;562126.00;1.87;968.87;97318.00;0.32;168.94;;;;;9.40;1.00;;;;;;2261427;61;1468;-78
2021/12/17 13:54:17;567884.00;1.89;978.80;102075.00;0.34;177.15;;;;;9.60;1.00;;;;;;2259762;61;1116;-81
2021/12/17 13:56:44;607998.00;2.03;1048.03;76627.00;0.26;133.21;;;;;9.70;1.00;;;;;;2253539;61;1113;-81
2021/12/17 13:59:11;482847.00;1.61;832.30;93690.00;0.31;162.68;;;;;9.90;1.00;;;;;;2251978;61;990;-79
2021/12/17 14:01:38;422560.00;1.41;728.59;92720.00;0.31;161.00;;;;;9.90;1.00;;;;;;2251540;61;1907;-81
2021/12/17 14:04:14;364662.00;1.22;629.06;95379.00;0.32;165.59;;;;;10.20;1.00;;;;;;2252060;61;1040;-81
2021/12/17 14:06:51;595641.00;1.99;1026.69;102662.00;0.34;178.17;;;;;10.80;1.00;;;;;;2252113;61;996;-82
2021/12/17 14:09:23;385594.00;1.29;665.04;97687.00;0.33;169.58;;;;;11.00;1.00;;;;;;2251801;61;959;-81
2021/12/17 14:11:51;381477.00;1.27;657.96;89247.00;0.30;155.01;;;;;11.10;1.00;;;;;;2254201;61;1360;-82
2021/12/17 14:14:23;388703.00;1.30;670.39;96576.00;0.32;167.66;;;;;11.10;1.00;;;;;;2259796;61;1033;-81
2021/12/17 14:16:57;311021.00;1.04;536.86;90199.00;0.30;156.65;;;;;11.00;1.00;;;;;;2264143;61;1184;-80
2021/12/17 14:19:40;551909.00;1.84;951.25;103050.00;0.34;178.84;;;;;10.50;1.00;;;;;;2266251;61;1017;-82
2021/12/17 14:22:24;410650.00;1.37;708.11;81412.00;0.27;141.48;;;;;9.90;1.00;;;;;;2272074;61;1915;-83
2021/12/17 14:24:53;411698.00;1.37;709.92;0.00;0.00;0.62;;;;;9.60;1.00;;;;;;2275288;60;962;-84
2021/12/17 14:27:20;340997.00;1.14;588.39;0.00;0.00;0.62;;;;;9.40;1.00;;;;;;2276892;60;970;-84
2021/12/17 14:29:48;418778.00;1.40;722.09;97665.00;0.33;169.54;;;;;9.60;1.00;;;;;;2276912;60;1006;-83
2021/12/17 14:32:18;418725.00;1.40;722.00;95587.00;0.32;165.95;;;;;9.60;1.00;;;;;;2276837;60;1463;-84
2021/12/17 14:34:45;355615.00;1.19;613.51;96438.00;0.32;167.42;;;;;9.40;1.00;;;;;;2276799;60;1045;-82
2021/12/17 14:37:12;164838.00;0.55;285.37;0.00;0.00;0.62;;;;;9.40;1.00;;;;;;2273341;60;1002;-81
2021/12/17 14:39:44;177217.00;0.59;306.70;0.00;0.00;0.62;;;;;9.60;1.00;;;;;;2270225;60;1151;-83
2021/12/17 14:42:29;335510.00;1.12;578.96;0.00;0.00;0.62;;;;;9.60;1.00;;;;;;2271552;60;1997;-84
2021/12/17 14:45:05;346370.00;1.15;597.62;88508.00;0.30;153.73;;;;;9.60;1.00;;;;;;2278177;60;1005;-83
2021/12/17 15:00:57;105538.00;0.35;183.13;0.00;0.00;0.62;;;;;10.20;1.00;;;;;;2281062;60;758;-84
2021/12/17 15:03:38;280013.00;0.93;483.56;11932.00;0.04;21.30;;;;;10.00;1.00;;;;;;2280886;60;1340;-84
2021/12/17 15:06:06;189457.00;0.63;327.77;0.00;0.00;0.62;;;;;9.60;1.00;;;;;;2281026;60;1028;-84
2021/12/17 15:08:34;164536.00;0.55;284.85;0.00;0.00;0.62;;;;;9.30;1.00;;;;;;2273710;61;1057;-85
2021/12/17 15:11:08;155760.00;0.52;269.73;0.00;0.00;0.62;;;;;9.50;1.00;;;;;;2272433;60;943;-82
2021/12/17 15:13:36;288813.00;0.96;498.69;0.00;0.00;0.62;;;;;9.40;1.00;;;;;;2272596;60;1479;-84
2021/12/17 15:16:04;237708.00;0.79;410.81;50431.00;0.17;87.93;;;;;9.20;1.00;;;;;;2264241;61;993;-81
2021/12/17 15:18:31;182648.00;0.61;316.05;0.00;0.00;0.62;;;;;9.40;1.00;;;;;;2264204;61;994;-85
2021/12/17 15:20:58;148457.00;0.49;257.15;0.00;0.00;0.62;;;;;9.30;1.00;;;;;;2254494;61;967;-84
2021/12/17 15:23:26;141039.00;0.47;244.36;0.00;0.00;0.62;;;;;9.20;1.00;;;;;;2260122;61;2014;-83
2021/12/17 15:25:54;121124.00;0.40;210.02;0.00;0.00;0.62;;;;;9.20;1.00;;;;;;2257487;61;1037;-85
2021/12/17 15:28:24;152795.00;0.51;264.62;0.00;0.00;0.62;;;;;9.40;1.00;;;;;;2258753;61;1010;-84
2021/12/17 15:30:55;362018.00;1.21;624.52;0.00;0.00;0.62;;;;;9.50;1.00;;;;;;2271873;61;1029;-81
2021/12/17 15:33:23;190235.00;0.63;329.11;19981.00;0.07;35.24;;;;;9.50;1.00;;;;;;2269546;61;1358;-84
2021/12/17 15:35:50;279169.00;0.93;482.11;0.00;0.00;0.62;;;;;9.20;1.00;;;;;;2272980;61;997;-85
2021/12/17 15:38:19;252884.00;0.84;436.91;0.00;0.00;0.62;;;;;9.30;1.00;;;;;;2269518;61;946;-82
2021/12/17 15:40:48;133592.00;0.45;231.52;0.00;0.00;0.62;;;;;9.30;1.00;;;;;;2273701;60;1052;-84
2021/12/17 15:43:17;127769.00;0.43;221.48;0.00;0.00;0.62;;;;;9.10;1.00;;;;;;2280889;60;1985;-84
2021/12/17 15:45:47;210337.00;0.70;363.72;0.00;0.00;0.62;;;;;8.90;1.00;;;;;;2272201;61;1052;-85
2021/12/17 15:48:18;1145921.00;3.82;1992.74;72334.00;0.24;125.79;;;;;8.90;1.00;;;;;;2263949;61;1053;-85
2021/12/17 15:50:45;139973.00;0.47;242.52;0.00;0.00;0.62;;;;;8.90;1.00;;;;;;2264129;61;1116;-84
2021/12/17 15:53:12;316174.00;1.05;545.72;0.00;0.00;0.62;;;;;9.00;1.00;;;;;;2260648;61;1358;-83